sensor_id;sensor_type;location;lat;lon;timestamp;temperature;humidity
40622;DHT22;26324;52.040;11.528;2023-07-20T00:00:54;16.90;87.40
40622;DHT22;26324;52.040;11.528;2023-07-20T00:03:21;16.90;86.80
40622;DHT22;26324;52.040;11.528;2023-07-20T00:05:52;17.00;86.70
40622;DHT22;26324;52.040;11.528;2023-07-20T00:08:19;17.00;85.90
40622;DHT22;26324;52.040;11.528;2023-07-20T00:10:47;17.00;86.10
40622;DHT22;26324;52.040;11.528;2023-07-20T00:13:14;17.00;85.40
40622;DHT22;26324;52.040;11.528;2023-07-20T00:15:43;16.90;85.50
40622;DHT22;26324;52.040;11.528;2023-07-20T00:18:10;16.90;85.30
40622;DHT22;26324;52.040;11.528;2023-07-20T00:20:37;16.80;85.50
40622;DHT22;26324;52.040;11.528;2023-07-20T00:23:05;16.80;86.00
40622;DHT22;26324;52.040;11.528;2023-07-20T00:25:33;16.70;86.40
40622;DHT22;26324;52.040;11.528;2023-07-20T00:28:00;16.70;86.50
40622;DHT22;26324;52.040;11.528;2023-07-20T00:30:28;16.60;86.30
40622;DHT22;26324;52.040;11.528;2023-07-20T00:32:55;16.60;86.40
40622;DHT22;26324;52.040;11.528;2023-07-20T00:35:23;16.60;85.70
40622;DHT22;26324;52.040;11.528;2023-07-20T00:37:50;16.50;85.20
40622;DHT22;26324;52.040;11.528;2023-07-20T00:40:18;16.40;84.60
40622;DHT22;26324;52.040;11.528;2023-07-20T00:42:45;16.40;84.50
40622;DHT22;26324;52.040;11.528;2023-07-20T00:45:12;16.30;84.10
40622;DHT22;26324;52.040;11.528;2023-07-20T00:47:40;16.40;83.70
40622;DHT22;26324;52.040;11.528;2023-07-20T00:50:09;16.40;83.00
40622;DHT22;26324;52.040;11.528;2023-07-20T00:52:37;16.30;82.70
40622;DHT22;26324;52.040;11.528;2023-07-20T00:55:09;16.00;83.20
40622;DHT22;26324;52.040;11.528;2023-07-20T00:57:37;16.00;83.90
40622;DHT22;26324;52.040;11.528;2023-07-20T01:00:07;16.00;83.50
40622;DHT22;26324;52.040;11.528;2023-07-20T01:02:34;15.80;83.80
40622;DHT22;26324;52.040;11.528;2023-07-20T01:05:02;15.80;83.80
40622;DHT22;26324;52.040;11.528;2023-07-20T01:08:02;15.80;83.60
40622;DHT22;26324;52.040;11.528;2023-07-20T01:12:57;15.90;83.50
40622;DHT22;26324;52.040;11.528;2023-07-20T01:15:24;15.60;83.90
40622;DHT22;26324;52.040;11.528;2023-07-20T01:17:53;15.50;84.40
40622;DHT22;26324;52.040;11.528;2023-07-20T01:20:21;15.30;84.50
40622;DHT22;26324;52.040;11.528;2023-07-20T01:31:32;15.50;84.30
40622;DHT22;26324;52.040;11.528;2023-07-20T01:34:02;15.50;84.30
40622;DHT22;26324;52.040;11.528;2023-07-20T01:36:35;15.50;83.80
40622;DHT22;26324;52.040;11.528;2023-07-20T01:39:03;15.40;84.50
40622;DHT22;26324;52.040;11.528;2023-07-20T01:41:34;15.40;84.50
40622;DHT22;26324;52.040;11.528;2023-07-20T01:44:03;15.30;84.50
40622;DHT22;26324;52.040;11.528;2023-07-20T01:46:31;15.30;84.60
40622;DHT22;26324;52.040;11.528;2023-07-20T01:49:00;15.40;84.60
40622;DHT22;26324;52.040;11.528;2023-07-20T01:51:27;15.40;84.40
40622;DHT22;26324;52.040;11.528;2023-07-20T01:53:55;15.40;84.20
40622;DHT22;26324;52.040;11.528;2023-07-20T01:56:22;15.50;84.00
40622;DHT22;26324;52.040;11.528;2023-07-20T01:58:50;15.50;84.00
40622;DHT22;26324;52.040;11.528;2023-07-20T02:01:17;15.50;84.30
40622;DHT22;26324;52.040;11.528;2023-07-20T02:03:44;15.50;84.30
40622;DHT22;26324;52.040;11.528;2023-07-20T02:06:14;15.60;84.10
40622;DHT22;26324;52.040;11.528;2023-07-20T02:08:41;15.70;84.10
40622;DHT22;26324;52.040;11.528;2023-07-20T02:11:08;15.70;84.20
40622;DHT22;26324;52.040;11.528;2023-07-20T02:13:37;15.70;84.30
40622;DHT22;26324;52.040;11.528;2023-07-20T02:16:04;15.70;84.30
40622;DHT22;26324;52.040;11.528;2023-07-20T02:18:32;15.70;84.10
40622;DHT22;26324;52.040;11.528;2023-07-20T02:21:00;15.70;84.30
40622;DHT22;26324;52.040;11.528;2023-07-20T02:23:27;15.80;84.10
40622;DHT22;26324;52.040;11.528;2023-07-20T02:25:55;15.80;84.00
40622;DHT22;26324;52.040;11.528;2023-07-20T02:28:22;15.60;84.10
40622;DHT22;26324;52.040;11.528;2023-07-20T02:30:53;15.70;84.50
40622;DHT22;26324;52.040;11.528;2023-07-20T02:33:21;15.80;84.20
40622;DHT22;26324;52.040;11.528;2023-07-20T02:35:48;15.80;84.20
40622;DHT22;26324;52.040;11.528;2023-07-20T02:38:16;15.70;84.20
40622;DHT22;26324;52.040;11.528;2023-07-20T02:40:43;15.70;84.40
40622;DHT22;26324;52.040;11.528;2023-07-20T02:43:10;15.60;84.60
40622;DHT22;26324;52.040;11.528;2023-07-20T02:45:41;15.70;84.40
40622;DHT22;26324;52.040;11.528;2023-07-20T02:48:11;15.60;84.40
40622;DHT22;26324;52.040;11.528;2023-07-20T02:50:40;15.60;84.70
40622;DHT22;26324;52.040;11.528;2023-07-20T02:53:07;15.60;84.60
40622;DHT22;26324;52.040;11.528;2023-07-20T02:55:35;15.50;84.80
40622;DHT22;26324;52.040;11.528;2023-07-20T02:58:02;15.60;84.70
40622;DHT22;26324;52.040;11.528;2023-07-20T03:00:29;15.60;84.70
40622;DHT22;26324;52.040;11.528;2023-07-20T03:02:57;15.50;84.80
40622;DHT22;26324;52.040;11.528;2023-07-20T03:05:24;15.40;84.90
40622;DHT22;26324;52.040;11.528;2023-07-20T03:07:55;15.30;85.30
40622;DHT22;26324;52.040;11.528;2023-07-20T03:10:23;15.30;85.70
40622;DHT22;26324;52.040;11.528;2023-07-20T03:12:50;15.30;85.70
40622;DHT22;26324;52.040;11.528;2023-07-20T03:15:18;15.10;86.00
40622;DHT22;26324;52.040;11.528;2023-07-20T03:17:45;15.10;86.30
40622;DHT22;26324;52.040;11.528;2023-07-20T03:20:12;15.10;86.20
40622;DHT22;26324;52.040;11.528;2023-07-20T03:22:40;15.10;86.40
40622;DHT22;26324;52.040;11.528;2023-07-20T03:25:09;15.20;86.30
40622;DHT22;26324;52.040;11.528;2023-07-20T03:27:40;15.30;86.00
40622;DHT22;26324;52.040;11.528;2023-07-20T03:30:08;15.20;86.00
40622;DHT22;26324;52.040;11.528;2023-07-20T03:32:44;15.20;86.30
40622;DHT22;26324;52.040;11.528;2023-07-20T03:35:12;15.10;86.60
40622;DHT22;26324;52.040;11.528;2023-07-20T03:37:39;15.10;86.90
40622;DHT22;26324;52.040;11.528;2023-07-20T03:40:07;15.10;86.80
40622;DHT22;26324;52.040;11.528;2023-07-20T03:42:35;15.10;86.70
40622;DHT22;26324;52.040;11.528;2023-07-20T03:45:04;15.10;86.60
40622;DHT22;26324;52.040;11.528;2023-07-20T03:47:31;15.20;86.90
40622;DHT22;26324;52.040;11.528;2023-07-20T03:49:59;15.30;86.80
40622;DHT22;26324;52.040;11.528;2023-07-20T03:52:26;15.40;86.00
40622;DHT22;26324;52.040;11.528;2023-07-20T03:54:54;15.50;86.20
40622;DHT22;26324;52.040;11.528;2023-07-20T03:57:22;15.50;85.80
40622;DHT22;26324;52.040;11.528;2023-07-20T03:59:49;15.50;85.80
40622;DHT22;26324;52.040;11.528;2023-07-20T04:02:17;15.50;86.10
40622;DHT22;26324;52.040;11.528;2023-07-20T04:04:45;15.40;86.10
40622;DHT22;26324;52.040;11.528;2023-07-20T04:07:12;15.50;85.80
40622;DHT22;26324;52.040;11.528;2023-07-20T04:09:42;15.50;86.00
40622;DHT22;26324;52.040;11.528;2023-07-20T04:12:09;15.50;85.40
40622;DHT22;26324;52.040;11.528;2023-07-20T04:14:36;15.50;85.80
40622;DHT22;26324;52.040;11.528;2023-07-20T04:17:04;15.50;86.10
40622;DHT22;26324;52.040;11.528;2023-07-20T04:19:32;15.60;85.60
40622;DHT22;26324;52.040;11.528;2023-07-20T04:21:59;15.70;85.40
40622;DHT22;26324;52.040;11.528;2023-07-20T04:24:27;15.70;85.00
40622;DHT22;26324;52.040;11.528;2023-07-20T04:26:54;15.80;85.20
40622;DHT22;26324;52.040;11.528;2023-07-20T04:29:21;15.70;85.00
40622;DHT22;26324;52.040;11.528;2023-07-20T04:31:49;15.70;85.70
40622;DHT22;26324;52.040;11.528;2023-07-20T04:34:16;15.80;85.50
40622;DHT22;26324;52.040;11.528;2023-07-20T04:36:44;15.80;85.30
40622;DHT22;26324;52.040;11.528;2023-07-20T04:39:13;15.90;85.30
40622;DHT22;26324;52.040;11.528;2023-07-20T04:41:58;15.90;85.00
40622;DHT22;26324;52.040;11.528;2023-07-20T04:44:25;15.90;84.80
40622;DHT22;26324;52.040;11.528;2023-07-20T04:46:53;16.00;84.90
40622;DHT22;26324;52.040;11.528;2023-07-20T04:49:20;16.00;84.90
40622;DHT22;26324;52.040;11.528;2023-07-20T04:51:48;16.00;84.90
40622;DHT22;26324;52.040;11.528;2023-07-20T04:54:17;16.00;84.70
40622;DHT22;26324;52.040;11.528;2023-07-20T04:56:46;16.00;84.70
40622;DHT22;26324;52.040;11.528;2023-07-20T04:59:18;16.00;84.20
40622;DHT22;26324;52.040;11.528;2023-07-20T05:01:45;16.00;83.90
40622;DHT22;26324;52.040;11.528;2023-07-20T05:04:13;16.00;83.90
40622;DHT22;26324;52.040;11.528;2023-07-20T05:06:45;15.90;84.20
40622;DHT22;26324;52.040;11.528;2023-07-20T05:09:13;15.90;84.30
40622;DHT22;26324;52.040;11.528;2023-07-20T05:11:40;15.90;83.90
40622;DHT22;26324;52.040;11.528;2023-07-20T05:14:08;15.80;83.30
40622;DHT22;26324;52.040;11.528;2023-07-20T05:16:37;15.80;83.50
40622;DHT22;26324;52.040;11.528;2023-07-20T05:19:06;15.60;84.10
40622;DHT22;26324;52.040;11.528;2023-07-20T05:21:34;15.60;84.30
40622;DHT22;26324;52.040;11.528;2023-07-20T05:24:02;15.60;85.00
40622;DHT22;26324;52.040;11.528;2023-07-20T05:26:30;15.70;84.80
40622;DHT22;26324;52.040;11.528;2023-07-20T05:28:57;15.80;84.60
40622;DHT22;26324;52.040;11.528;2023-07-20T05:31:25;16.00;83.60
40622;DHT22;26324;52.040;11.528;2023-07-20T05:33:53;16.00;83.60
40622;DHT22;26324;52.040;11.528;2023-07-20T05:36:21;16.00;82.90
40622;DHT22;26324;52.040;11.528;2023-07-20T05:38:49;16.10;82.80
40622;DHT22;26324;52.040;11.528;2023-07-20T05:41:16;16.20;83.40
40622;DHT22;26324;52.040;11.528;2023-07-20T05:43:44;16.30;83.30
40622;DHT22;26324;52.040;11.528;2023-07-20T05:46:12;16.50;82.30
40622;DHT22;26324;52.040;11.528;2023-07-20T05:48:39;16.60;81.90
40622;DHT22;26324;52.040;11.528;2023-07-20T05:51:07;16.50;80.90
40622;DHT22;26324;52.040;11.528;2023-07-20T05:53:35;16.60;80.80
40622;DHT22;26324;52.040;11.528;2023-07-20T05:56:03;16.70;80.90
40622;DHT22;26324;52.040;11.528;2023-07-20T05:58:30;16.80;81.10
40622;DHT22;26324;52.040;11.528;2023-07-20T06:00:58;16.70;81.40
40622;DHT22;26324;52.040;11.528;2023-07-20T06:03:26;16.90;81.20
40622;DHT22;26324;52.040;11.528;2023-07-20T06:05:59;16.90;80.90
40622;DHT22;26324;52.040;11.528;2023-07-20T06:08:28;17.00;81.00
40622;DHT22;26324;52.040;11.528;2023-07-20T06:10:57;17.10;79.80
40622;DHT22;26324;52.040;11.528;2023-07-20T06:13:24;17.10;79.60
40622;DHT22;26324;52.040;11.528;2023-07-20T06:15:52;16.90;78.70
40622;DHT22;26324;52.040;11.528;2023-07-20T06:18:22;16.70;79.80
40622;DHT22;26324;52.040;11.528;2023-07-20T06:20:51;17.00;80.00
40622;DHT22;26324;52.040;11.528;2023-07-20T06:23:19;17.10;79.30
40622;DHT22;26324;52.040;11.528;2023-07-20T06:25:47;17.40;79.60
40622;DHT22;26324;52.040;11.528;2023-07-20T06:28:15;17.30;78.70
40622;DHT22;26324;52.040;11.528;2023-07-20T06:30:42;17.60;77.50
40622;DHT22;26324;52.040;11.528;2023-07-20T06:33:10;17.70;77.30
40622;DHT22;26324;52.040;11.528;2023-07-20T06:35:41;17.90;74.70
40622;DHT22;26324;52.040;11.528;2023-07-20T06:38:10;18.00;75.50
40622;DHT22;26324;52.040;11.528;2023-07-20T06:40:41;18.30;75.70
40622;DHT22;26324;52.040;11.528;2023-07-20T06:43:11;18.40;75.50
40622;DHT22;26324;52.040;11.528;2023-07-20T06:45:42;18.40;74.30
40622;DHT22;26324;52.040;11.528;2023-07-20T06:48:10;18.40;73.60
40622;DHT22;26324;52.040;11.528;2023-07-20T06:50:40;18.30;73.00
40622;DHT22;26324;52.040;11.528;2023-07-20T06:53:10;18.40;75.90
40622;DHT22;26324;52.040;11.528;2023-07-20T06:55:43;18.50;73.50
40622;DHT22;26324;52.040;11.528;2023-07-20T06:58:11;18.60;73.80
40622;DHT22;26324;52.040;11.528;2023-07-20T07:00:38;18.70;72.30
40622;DHT22;26324;52.040;11.528;2023-07-20T07:03:06;19.10;71.00
40622;DHT22;26324;52.040;11.528;2023-07-20T07:05:36;19.30;68.10
40622;DHT22;26324;52.040;11.528;2023-07-20T07:08:05;19.30;68.10
40622;DHT22;26324;52.040;11.528;2023-07-20T07:10:34;19.00;68.70
40622;DHT22;26324;52.040;11.528;2023-07-20T07:13:08;18.70;70.10
40622;DHT22;26324;52.040;11.528;2023-07-20T07:15:35;18.40;69.20
40622;DHT22;26324;52.040;11.528;2023-07-20T07:18:05;18.40;69.00
40622;DHT22;26324;52.040;11.528;2023-07-20T07:20:32;18.50;68.50
40622;DHT22;26324;52.040;11.528;2023-07-20T07:22:59;18.50;69.50
40622;DHT22;26324;52.040;11.528;2023-07-20T07:25:27;18.60;69.70
40622;DHT22;26324;52.040;11.528;2023-07-20T07:27:55;18.60;67.00
40622;DHT22;26324;52.040;11.528;2023-07-20T07:30:23;18.70;69.00
40622;DHT22;26324;52.040;11.528;2023-07-20T07:32:57;18.70;68.70
40622;DHT22;26324;52.040;11.528;2023-07-20T07:35:25;18.90;68.20
40622;DHT22;26324;52.040;11.528;2023-07-20T07:37:52;18.60;67.10
40622;DHT22;26324;52.040;11.528;2023-07-20T07:40:40;18.70;68.50
40622;DHT22;26324;52.040;11.528;2023-07-20T07:43:07;18.70;69.00
40622;DHT22;26324;52.040;11.528;2023-07-20T07:45:36;18.80;67.90
40622;DHT22;26324;52.040;11.528;2023-07-20T07:48:05;19.00;67.30
40622;DHT22;26324;52.040;11.528;2023-07-20T07:50:34;19.20;65.00
40622;DHT22;26324;52.040;11.528;2023-07-20T07:53:01;19.30;65.20
40622;DHT22;26324;52.040;11.528;2023-07-20T07:55:30;19.40;65.60
40622;DHT22;26324;52.040;11.528;2023-07-20T07:57:58;19.50;64.30
40622;DHT22;26324;52.040;11.528;2023-07-20T08:00:26;19.30;65.00
40622;DHT22;26324;52.040;11.528;2023-07-20T08:02:53;19.30;65.70
40622;DHT22;26324;52.040;11.528;2023-07-20T08:05:21;19.30;65.80
40622;DHT22;26324;52.040;11.528;2023-07-20T08:07:49;19.10;66.20
40622;DHT22;26324;52.040;11.528;2023-07-20T08:10:17;19.20;66.60
40622;DHT22;26324;52.040;11.528;2023-07-20T08:12:44;19.10;64.80
40622;DHT22;26324;52.040;11.528;2023-07-20T08:15:12;19.10;65.60
40622;DHT22;26324;52.040;11.528;2023-07-20T08:17:42;19.10;65.50
40622;DHT22;26324;52.040;11.528;2023-07-20T08:20:13;19.20;65.90
40622;DHT22;26324;52.040;11.528;2023-07-20T08:22:41;19.00;66.10
40622;DHT22;26324;52.040;11.528;2023-07-20T08:25:09;19.10;65.30
40622;DHT22;26324;52.040;11.528;2023-07-20T08:27:37;19.10;64.90
40622;DHT22;26324;52.040;11.528;2023-07-20T08:30:05;19.10;65.10
40622;DHT22;26324;52.040;11.528;2023-07-20T08:32:33;18.80;66.70
40622;DHT22;26324;52.040;11.528;2023-07-20T08:35:01;18.80;67.30
40622;DHT22;26324;52.040;11.528;2023-07-20T08:37:29;18.90;66.60
40622;DHT22;26324;52.040;11.528;2023-07-20T08:39:57;18.70;66.30
40622;DHT22;26324;52.040;11.528;2023-07-20T08:42:24;18.60;66.30
40622;DHT22;26324;52.040;11.528;2023-07-20T08:44:53;18.60;67.10
40622;DHT22;26324;52.040;11.528;2023-07-20T08:47:22;18.70;67.30
40622;DHT22;26324;52.040;11.528;2023-07-20T08:49:52;18.80;67.80
40622;DHT22;26324;52.040;11.528;2023-07-20T08:52:21;19.00;67.30
40622;DHT22;26324;52.040;11.528;2023-07-20T08:54:49;19.10;67.30
40622;DHT22;26324;52.040;11.528;2023-07-20T08:57:18;19.10;67.30
40622;DHT22;26324;52.040;11.528;2023-07-20T08:59:47;19.10;68.10
40622;DHT22;26324;52.040;11.528;2023-07-20T09:02:16;19.10;67.80
40622;DHT22;26324;52.040;11.528;2023-07-20T09:04:46;18.90;68.20
40622;DHT22;26324;52.040;11.528;2023-07-20T09:07:13;18.80;68.10
40622;DHT22;26324;52.040;11.528;2023-07-20T09:09:42;18.70;68.50
40622;DHT22;26324;52.040;11.528;2023-07-20T09:12:15;18.60;69.50
40622;DHT22;26324;52.040;11.528;2023-07-20T09:14:44;18.30;70.20
40622;DHT22;26324;52.040;11.528;2023-07-20T09:17:15;18.10;70.70
40622;DHT22;26324;52.040;11.528;2023-07-20T09:19:48;18.00;70.80
40622;DHT22;26324;52.040;11.528;2023-07-20T09:22:16;17.90;72.30
40622;DHT22;26324;52.040;11.528;2023-07-20T09:24:45;17.90;72.40
40622;DHT22;26324;52.040;11.528;2023-07-20T09:27:13;18.10;72.40
40622;DHT22;26324;52.040;11.528;2023-07-20T09:29:48;18.40;71.70
40622;DHT22;26324;52.040;11.528;2023-07-20T09:32:20;18.70;69.50
40622;DHT22;26324;52.040;11.528;2023-07-20T09:34:52;18.70;69.90
40622;DHT22;26324;52.040;11.528;2023-07-20T09:37:23;18.60;70.00
40622;DHT22;26324;52.040;11.528;2023-07-20T09:39:52;18.40;70.10
40622;DHT22;26324;52.040;11.528;2023-07-20T09:42:23;18.30;70.80
40622;DHT22;26324;52.040;11.528;2023-07-20T09:44:56;18.10;69.80
40622;DHT22;26324;52.040;11.528;2023-07-20T09:47:24;18.00;71.00
40622;DHT22;26324;52.040;11.528;2023-07-20T09:49:58;17.80;72.10
40622;DHT22;26324;52.040;11.528;2023-07-20T09:52:30;17.80;72.90
40622;DHT22;26324;52.040;11.528;2023-07-20T09:55:02;18.00;72.10
40622;DHT22;26324;52.040;11.528;2023-07-20T09:57:33;17.90;72.80
40622;DHT22;26324;52.040;11.528;2023-07-20T10:00:04;18.00;71.10
40622;DHT22;26324;52.040;11.528;2023-07-20T10:02:43;18.00;70.00
40622;DHT22;26324;52.040;11.528;2023-07-20T10:05:13;18.30;69.70
40622;DHT22;26324;52.040;11.528;2023-07-20T10:07:47;18.30;69.80
40622;DHT22;26324;52.040;11.528;2023-07-20T10:10:19;18.30;68.90
40622;DHT22;26324;52.040;11.528;2023-07-20T10:12:48;18.30;67.40
40622;DHT22;26324;52.040;11.528;2023-07-20T10:15:40;18.40;66.60
40622;DHT22;26324;52.040;11.528;2023-07-20T10:20:44;18.60;65.50
40622;DHT22;26324;52.040;11.528;2023-07-20T10:23:16;18.60;66.40
40622;DHT22;26324;52.040;11.528;2023-07-20T10:25:46;18.70;64.40
40622;DHT22;26324;52.040;11.528;2023-07-20T10:28:14;19.00;65.00
40622;DHT22;26324;52.040;11.528;2023-07-20T10:30:43;19.30;65.00
40622;DHT22;26324;52.040;11.528;2023-07-20T10:33:11;19.60;63.80
40622;DHT22;26324;52.040;11.528;2023-07-20T10:35:56;20.00;63.60
40622;DHT22;26324;52.040;11.528;2023-07-20T10:43:47;20.40;60.60
40622;DHT22;26324;52.040;11.528;2023-07-20T10:46:43;20.50;60.90
40622;DHT22;26324;52.040;11.528;2023-07-20T10:49:13;20.60;60.90
40622;DHT22;26324;52.040;11.528;2023-07-20T10:51:47;20.60;59.60
40622;DHT22;26324;52.040;11.528;2023-07-20T10:57:04;20.80;51.80
40622;DHT22;26324;52.040;11.528;2023-07-20T10:59:47;21.30;52.70
40622;DHT22;26324;52.040;11.528;2023-07-20T11:02:18;21.60;50.50
40622;DHT22;26324;52.040;11.528;2023-07-20T11:04:48;21.70;51.70
40622;DHT22;26324;52.040;11.528;2023-07-20T11:07:23;22.10;49.70
40622;DHT22;26324;52.040;11.528;2023-07-20T11:10:12;22.40;49.90
40622;DHT22;26324;52.040;11.528;2023-07-20T11:12:40;22.50;47.10
40622;DHT22;26324;52.040;11.528;2023-07-20T11:15:08;22.20;47.10
40622;DHT22;26324;52.040;11.528;2023-07-20T11:17:37;21.70;46.90
40622;DHT22;26324;52.040;11.528;2023-07-20T11:20:06;21.50;47.00
40622;DHT22;26324;52.040;11.528;2023-07-20T11:22:36;21.50;49.70
40622;DHT22;26324;52.040;11.528;2023-07-20T11:25:04;21.90;50.50
40622;DHT22;26324;52.040;11.528;2023-07-20T11:27:32;22.00;47.90
40622;DHT22;26324;52.040;11.528;2023-07-20T11:29:59;21.60;48.20
40622;DHT22;26324;52.040;11.528;2023-07-20T11:32:27;21.80;50.50
40622;DHT22;26324;52.040;11.528;2023-07-20T11:34:54;22.10;49.10
40622;DHT22;26324;52.040;11.528;2023-07-20T11:37:22;22.40;47.50
40622;DHT22;26324;52.040;11.528;2023-07-20T11:39:56;22.40;47.00
40622;DHT22;26324;52.040;11.528;2023-07-20T11:42:23;22.30;46.40
40622;DHT22;26324;52.040;11.528;2023-07-20T11:44:53;22.00;47.80
40622;DHT22;26324;52.040;11.528;2023-07-20T11:47:21;21.90;48.20
40622;DHT22;26324;52.040;11.528;2023-07-20T11:49:48;22.00;47.00
40622;DHT22;26324;52.040;11.528;2023-07-20T11:52:23;22.00;46.00
40622;DHT22;26324;52.040;11.528;2023-07-20T11:54:52;22.10;45.50
40622;DHT22;26324;52.040;11.528;2023-07-20T11:57:20;22.10;45.30
40622;DHT22;26324;52.040;11.528;2023-07-20T11:59:57;22.20;45.40
40622;DHT22;26324;52.040;11.528;2023-07-20T12:02:29;22.50;45.30
40622;DHT22;26324;52.040;11.528;2023-07-20T12:04:57;22.40;45.30
40622;DHT22;26324;52.040;11.528;2023-07-20T12:07:27;22.40;45.30
40622;DHT22;26324;52.040;11.528;2023-07-20T12:10:10;22.30;44.30
40622;DHT22;26324;52.040;11.528;2023-07-20T12:12:43;22.40;44.80
40622;DHT22;26324;52.040;11.528;2023-07-20T12:15:26;22.60;43.50
40622;DHT22;26324;52.040;11.528;2023-07-20T12:17:59;22.60;43.70
40622;DHT22;26324;52.040;11.528;2023-07-20T12:20:32;22.50;43.90
40622;DHT22;26324;52.040;11.528;2023-07-20T12:23:02;22.40;43.50
40622;DHT22;26324;52.040;11.528;2023-07-20T12:25:41;22.30;44.40
40622;DHT22;26324;52.040;11.528;2023-07-20T12:28:11;22.00;44.20
40622;DHT22;26324;52.040;11.528;2023-07-20T12:30:40;22.00;44.60
40622;DHT22;26324;52.040;11.528;2023-07-20T12:33:08;22.10;44.40
40622;DHT22;26324;52.040;11.528;2023-07-20T12:35:37;22.20;44.10
40622;DHT22;26324;52.040;11.528;2023-07-20T12:38:04;22.60;44.90
40622;DHT22;26324;52.040;11.528;2023-07-20T12:40:32;22.70;43.80
40622;DHT22;26324;52.040;11.528;2023-07-20T12:43:00;22.90;42.90
40622;DHT22;26324;52.040;11.528;2023-07-20T12:45:27;22.70;43.00
40622;DHT22;26324;52.040;11.528;2023-07-20T12:47:55;22.60;43.90
40622;DHT22;26324;52.040;11.528;2023-07-20T12:50:23;22.80;43.70
40622;DHT22;26324;52.040;11.528;2023-07-20T12:52:51;23.00;42.40
40622;DHT22;26324;52.040;11.528;2023-07-20T12:55:18;23.00;41.80
40622;DHT22;26324;52.040;11.528;2023-07-20T12:57:46;22.90;41.60
40622;DHT22;26324;52.040;11.528;2023-07-20T13:00:15;23.00;40.80
40622;DHT22;26324;52.040;11.528;2023-07-20T13:02:43;23.20;39.30
40622;DHT22;26324;52.040;11.528;2023-07-20T13:05:11;23.70;38.70
40622;DHT22;26324;52.040;11.528;2023-07-20T13:07:39;23.90;38.40
40622;DHT22;26324;52.040;11.528;2023-07-20T13:10:10;23.40;39.10
40622;DHT22;26324;52.040;11.528;2023-07-20T13:12:38;23.40;40.90
40622;DHT22;26324;52.040;11.528;2023-07-20T13:15:07;23.80;42.00
40622;DHT22;26324;52.040;11.528;2023-07-20T13:17:35;24.30;40.10
40622;DHT22;26324;52.040;11.528;2023-07-20T13:20:04;24.40;38.80
40622;DHT22;26324;52.040;11.528;2023-07-20T13:22:33;24.80;37.60
40622;DHT22;26324;52.040;11.528;2023-07-20T13:25:02;24.60;37.70
40622;DHT22;26324;52.040;11.528;2023-07-20T13:27:29;24.90;37.40
40622;DHT22;26324;52.040;11.528;2023-07-20T13:30:00;24.80;37.40
40622;DHT22;26324;52.040;11.528;2023-07-20T13:32:37;24.50;37.60
40622;DHT22;26324;52.040;11.528;2023-07-20T13:35:07;24.30;38.50
40622;DHT22;26324;52.040;11.528;2023-07-20T13:37:35;24.10;38.30
40622;DHT22;26324;52.040;11.528;2023-07-20T13:40:02;23.90;39.80
40622;DHT22;26324;52.040;11.528;2023-07-20T13:42:34;23.60;38.70
40622;DHT22;26324;52.040;11.528;2023-07-20T13:45:01;23.60;40.90
40622;DHT22;26324;52.040;11.528;2023-07-20T13:47:32;24.60;39.50
40622;DHT22;26324;52.040;11.528;2023-07-20T13:50:03;25.80;35.90
40622;DHT22;26324;52.040;11.528;2023-07-20T13:52:31;26.60;37.20
40622;DHT22;26324;52.040;11.528;2023-07-20T13:55:01;27.10;33.40
40622;DHT22;26324;52.040;11.528;2023-07-20T13:57:32;27.40;33.50
40622;DHT22;26324;52.040;11.528;2023-07-20T14:00:03;27.30;32.80
40622;DHT22;26324;52.040;11.528;2023-07-20T14:02:38;27.30;32.30
40622;DHT22;26324;52.040;11.528;2023-07-20T14:05:08;27.20;30.80
40622;DHT22;26324;52.040;11.528;2023-07-20T14:07:39;27.10;31.10
40622;DHT22;26324;52.040;11.528;2023-07-20T14:10:07;27.70;30.90
40622;DHT22;26324;52.040;11.528;2023-07-20T14:12:37;27.70;30.30
40622;DHT22;26324;52.040;11.528;2023-07-20T14:15:05;28.00;30.20
40622;DHT22;26324;52.040;11.528;2023-07-20T14:17:33;27.10;30.90
40622;DHT22;26324;52.040;11.528;2023-07-20T14:20:01;25.90;32.60
40622;DHT22;26324;52.040;11.528;2023-07-20T14:22:32;24.80;34.80
40622;DHT22;26324;52.040;11.528;2023-07-20T14:24:59;24.20;35.60
40622;DHT22;26324;52.040;11.528;2023-07-20T14:27:27;24.90;35.70
40622;DHT22;26324;52.040;11.528;2023-07-20T14:29:54;25.60;34.00
40622;DHT22;26324;52.040;11.528;2023-07-20T14:32:22;26.40;33.60
40622;DHT22;26324;52.040;11.528;2023-07-20T14:34:50;27.20;31.90
40622;DHT22;26324;52.040;11.528;2023-07-20T14:37:20;27.80;30.90
40622;DHT22;26324;52.040;11.528;2023-07-20T14:39:48;28.50;29.60
40622;DHT22;26324;52.040;11.528;2023-07-20T14:42:15;29.20;29.10
40622;DHT22;26324;52.040;11.528;2023-07-20T14:44:43;28.70;28.70
40622;DHT22;26324;52.040;11.528;2023-07-20T14:47:12;29.10;28.20
40622;DHT22;26324;52.040;11.528;2023-07-20T14:49:42;29.40;28.80
40622;DHT22;26324;52.040;11.528;2023-07-20T14:52:11;30.30;27.00
40622;DHT22;26324;52.040;11.528;2023-07-20T14:54:43;29.70;27.30
40622;DHT22;26324;52.040;11.528;2023-07-20T14:57:10;28.50;29.20
40622;DHT22;26324;52.040;11.528;2023-07-20T14:59:42;27.00;31.20
40622;DHT22;26324;52.040;11.528;2023-07-20T15:02:09;26.60;31.10
40622;DHT22;26324;52.040;11.528;2023-07-20T15:04:37;26.80;31.30
40622;DHT22;26324;52.040;11.528;2023-07-20T15:07:04;27.40;30.90
40622;DHT22;26324;52.040;11.528;2023-07-20T15:09:32;27.70;29.50
40622;DHT22;26324;52.040;11.528;2023-07-20T15:12:01;27.90;29.80
40622;DHT22;26324;52.040;11.528;2023-07-20T15:14:29;28.20;29.30
40622;DHT22;26324;52.040;11.528;2023-07-20T15:16:57;28.40;29.40
40622;DHT22;26324;52.040;11.528;2023-07-20T15:19:25;28.60;29.30
40622;DHT22;26324;52.040;11.528;2023-07-20T15:21:54;28.30;29.80
40622;DHT22;26324;52.040;11.528;2023-07-20T15:24:21;28.10;30.30
40622;DHT22;26324;52.040;11.528;2023-07-20T15:26:48;27.60;29.90
40622;DHT22;26324;52.040;11.528;2023-07-20T15:29:16;27.10;30.10
40622;DHT22;26324;52.040;11.528;2023-07-20T15:31:46;26.30;31.80
40622;DHT22;26324;52.040;11.528;2023-07-20T15:34:17;25.70;31.60
40622;DHT22;26324;52.040;11.528;2023-07-20T15:36:45;25.60;32.50
40622;DHT22;26324;52.040;11.528;2023-07-20T15:39:12;26.60;31.00
40622;DHT22;26324;52.040;11.528;2023-07-20T15:41:40;27.20;30.30
40622;DHT22;26324;52.040;11.528;2023-07-20T15:44:07;27.10;29.60
40622;DHT22;26324;52.040;11.528;2023-07-20T15:46:43;26.20;31.60
40622;DHT22;26324;52.040;11.528;2023-07-20T15:49:11;25.40;33.80